createdAt,value
2016-12-21T00:01:01.993Z,1018.64
2016-12-21T00:01:43.766Z,1018.63
2016-12-21T00:02:25.259Z,1018.63
2016-12-21T00:03:06.879Z,1018.65
2016-12-21T00:03:48.627Z,1018.68
2016-12-21T00:04:30.140Z,1018.67
2016-12-21T00:05:11.803Z,1018.66
2016-12-21T00:05:53.512Z,1018.67
2016-12-21T00:06:35.166Z,1018.68
2016-12-21T00:07:16.829Z,1018.68
2016-12-21T00:07:58.549Z,1018.7
2016-12-21T00:08:40.256Z,1018.69
2016-12-21T00:09:21.982Z,1018.67
2016-12-21T00:10:03.606Z,1018.7
2016-12-21T00:10:45.157Z,1018.71
2016-12-21T00:11:26.774Z,1018.76
2016-12-21T00:13:21.347Z,1018.78
2016-12-21T00:15:16.048Z,1018.81
2016-12-21T00:15:57.704Z,1018.83
2016-12-21T00:16:39.357Z,1018.84
2016-12-21T00:17:20.968Z,1018.87
2016-12-21T00:18:02.682Z,1018.85
2016-12-21T00:18:44.300Z,1018.86
2016-12-21T00:19:25.965Z,1018.84
2016-12-21T00:20:07.698Z,1018.82
2016-12-21T00:20:49.388Z,1018.79
2016-12-21T00:21:31.009Z,1018.8
2016-12-21T00:22:12.795Z,1018.79
2016-12-21T00:22:54.367Z,1018.77
2016-12-21T00:23:36.066Z,1018.8
2016-12-21T00:27:56.465Z,1018.8
2016-12-21T00:28:38.212Z,1018.83
2016-12-21T00:29:19.918Z,1018.91
2016-12-21T00:30:01.691Z,1018.88
2016-12-21T00:30:43.430Z,1018.89
2016-12-21T00:31:25.145Z,1018.88
2016-12-21T00:32:06.891Z,1018.91
2016-12-21T00:32:48.549Z,1018.92
2016-12-21T00:33:30.107Z,1018.88
2016-12-21T00:34:11.770Z,1018.92
2016-12-21T00:36:06.500Z,1018.95
2016-12-21T00:38:06.493Z,1018.93
2016-12-21T00:38:48.218Z,1018.92
2016-12-21T00:41:09.036Z,1018.96
2016-12-21T00:41:50.712Z,1018.98
2016-12-21T00:42:32.406Z,1019.02
2016-12-21T00:43:14.126Z,1018.98
2016-12-21T00:45:13.810Z,1018.99
2016-12-21T00:45:55.381Z,1018.98
2016-12-21T00:46:36.970Z,1019.03
2016-12-21T00:47:18.697Z,1019.06
2016-12-21T00:48:00.269Z,1019.07
2016-12-21T00:48:42.053Z,1019.05
2016-12-21T00:49:23.768Z,1019.08
2016-12-21T00:50:05.366Z,1019.06
2016-12-21T00:50:47.117Z,1019.05
2016-12-21T00:51:28.829Z,1019.01
2016-12-21T00:52:10.396Z,1019.07
2016-12-21T00:54:25.908Z,1019.08
2016-12-21T00:55:07.578Z,1019.1
2016-12-21T00:55:49.384Z,1019.1
2016-12-21T00:56:31.154Z,1019.1
2016-12-21T00:57:12.819Z,1019.13
2016-12-21T00:57:54.515Z,1019.19
2016-12-21T00:58:36.132Z,1019.14
2016-12-21T01:00:30.808Z,1019.18
2016-12-21T01:02:25.515Z,1019.2
2016-12-21T01:03:07.077Z,1019.17
2016-12-21T01:05:38.025Z,1019.21
2016-12-21T01:06:19.370Z,1019.21
2016-12-21T01:08:14.064Z,1019.21
2016-12-21T01:08:55.838Z,1019.21
2016-12-21T01:11:11.308Z,1019.3
2016-12-21T01:11:53.071Z,1019.29
2016-12-21T01:12:34.677Z,1019.23
2016-12-21T01:13:16.446Z,1019.21
2016-12-21T01:13:58.236Z,1019.25
2016-12-21T01:16:29.331Z,1019.29
2016-12-21T01:17:11.073Z,1019.26
2016-12-21T01:17:52.785Z,1019.27
2016-12-21T01:20:07.840Z,1019.23
2016-12-21T01:20:49.307Z,1019.17
2016-12-21T01:23:10.056Z,1019.12
2016-12-21T01:23:51.933Z,1019.16
2016-12-21T01:24:33.515Z,1019.16
2016-12-21T01:25:15.300Z,1019.2
2016-12-21T01:25:56.778Z,1019.23
2016-12-21T01:26:38.555Z,1019.23
2016-12-21T01:27:20.345Z,1019.22
2016-12-21T01:28:02.167Z,1019.22
2016-12-21T01:28:43.926Z,1019.21
2016-12-21T01:29:25.573Z,1019.25
2016-12-21T01:30:07.297Z,1019.28
2016-12-21T01:30:49.027Z,1019.3
2016-12-21T01:33:09.483Z,1019.31
2016-12-21T01:35:09.502Z,1019.32
2016-12-21T01:35:51.094Z,1019.35
2016-12-21T01:38:06.206Z,1019.33
2016-12-21T01:38:47.888Z,1019.3
2016-12-21T01:41:03.229Z,1019.26
2016-12-21T01:41:44.953Z,1019.28
2016-12-21T01:42:26.632Z,1019.28
2016-12-21T01:43:08.256Z,1019.32
2016-12-21T01:43:50.035Z,1019.3
2016-12-21T01:44:31.600Z,1019.31
2016-12-21T01:45:13.383Z,1019.31
2016-12-21T01:45:55.038Z,1019.34
2016-12-21T01:46:36.712Z,1019.38
2016-12-21T01:47:18.438Z,1019.34
2016-12-21T01:48:00.196Z,1019.31
2016-12-21T01:48:41.887Z,1019.33
2016-12-21T01:49:23.647Z,1019.34
2016-12-21T01:50:05.305Z,1019.31
2016-12-21T01:50:47.061Z,1019.33
2016-12-21T01:51:28.705Z,1019.32
2016-12-21T01:52:10.475Z,1019.35
2016-12-21T01:52:52.054Z,1019.31
2016-12-21T01:53:33.806Z,1019.29
2016-12-21T01:54:15.480Z,1019.27
2016-12-21T01:54:57.136Z,1019.31
2016-12-21T01:55:38.826Z,1019.29
2016-12-21T01:56:20.597Z,1019.34
2016-12-21T01:57:02.050Z,1019.37
2016-12-21T01:59:02.048Z,1019.47
2016-12-21T01:59:42.791Z,1019.47
2016-12-21T02:00:23.322Z,1019.46
2016-12-21T02:01:03.842Z,1019.44
2016-12-21T02:01:44.373Z,1019.44
2016-12-21T02:02:24.896Z,1019.43
2016-12-21T02:03:05.414Z,1019.42
2016-12-21T02:03:45.930Z,1019.44
2016-12-21T02:04:26.457Z,1019.42
2016-12-21T02:05:06.989Z,1019.42
2016-12-21T02:05:47.508Z,1019.42
2016-12-21T02:06:28.025Z,1019.42
2016-12-21T02:07:08.553Z,1019.47
2016-12-21T02:07:49.067Z,1019.46
2016-12-21T02:08:29.592Z,1019.46
2016-12-21T02:09:10.186Z,1019.53
2016-12-21T02:09:50.704Z,1019.54
2016-12-21T02:10:31.219Z,1019.58
2016-12-21T02:11:11.738Z,1019.63
2016-12-21T02:11:52.270Z,1019.63
2016-12-21T02:12:32.796Z,1019.7
2016-12-21T02:13:13.328Z,1019.68
2016-12-21T02:13:53.856Z,1019.66
2016-12-21T02:14:34.389Z,1019.71
2016-12-21T02:15:14.920Z,1019.68
2016-12-21T02:15:55.450Z,1019.67
2016-12-21T02:16:35.983Z,1019.69
2016-12-21T02:17:16.520Z,1019.63
2016-12-21T02:17:57.053Z,1019.65
2016-12-21T02:18:37.583Z,1019.66
2016-12-21T02:19:18.115Z,1019.67
2016-12-21T02:19:58.637Z,1019.64
2016-12-21T02:20:39.178Z,1019.67
2016-12-21T02:21:19.727Z,1019.69
2016-12-21T02:22:00.238Z,1019.64
2016-12-21T02:22:40.764Z,1019.67
2016-12-21T02:23:21.287Z,1019.67
2016-12-21T02:24:01.823Z,1019.68
2016-12-21T02:24:42.357Z,1019.64
2016-12-21T02:25:22.874Z,1019.69
2016-12-21T02:26:03.413Z,1019.63
2016-12-21T02:26:45.906Z,1019.67
2016-12-21T02:27:26.431Z,1019.68
2016-12-21T02:28:06.962Z,1019.69
2016-12-21T02:28:47.496Z,1019.65
2016-12-21T02:29:28.021Z,1019.73
2016-12-21T02:30:08.522Z,1019.73
2016-12-21T02:30:49.027Z,1019.7
2016-12-21T02:31:29.558Z,1019.73
2016-12-21T02:32:10.080Z,1019.68
2016-12-21T02:32:50.636Z,1019.71
2016-12-21T02:33:31.109Z,1019.72
2016-12-21T02:34:11.656Z,1019.72
2016-12-21T02:34:52.173Z,1019.73
2016-12-21T02:35:32.714Z,1019.72
2016-12-21T02:36:13.244Z,1019.69
2016-12-21T02:36:53.773Z,1019.73
2016-12-21T02:37:34.308Z,1019.72
2016-12-21T02:38:14.826Z,1019.73
2016-12-21T02:38:55.351Z,1019.76
2016-12-21T02:39:35.865Z,1019.74
2016-12-21T02:40:16.380Z,1019.75
2016-12-21T02:40:56.910Z,1019.75
2016-12-21T02:41:37.442Z,1019.76
2016-12-21T02:42:17.957Z,1019.77
2016-12-21T02:42:58.475Z,1019.79
2016-12-21T02:43:39.009Z,1019.77
2016-12-21T02:44:19.536Z,1019.78
2016-12-21T02:45:00.057Z,1019.79
2016-12-21T02:45:40.595Z,1019.81
2016-12-21T02:46:21.127Z,1019.82
2016-12-21T02:47:01.659Z,1019.85
2016-12-21T02:47:42.177Z,1019.92
2016-12-21T02:48:22.709Z,1019.95
2016-12-21T02:49:03.241Z,1019.95
2016-12-21T02:49:43.789Z,1020.02
2016-12-21T02:50:24.312Z,1020
2016-12-21T02:51:04.846Z,1020.05
2016-12-21T02:51:45.364Z,1020.08
2016-12-21T02:52:25.947Z,1020.07
2016-12-21T02:53:06.467Z,1020.09
2016-12-21T02:53:46.997Z,1020.07
2016-12-21T02:54:27.524Z,1020.04
2016-12-21T02:55:08.058Z,1020
2016-12-21T02:55:48.581Z,1019.99
2016-12-21T02:56:29.110Z,1019.98
2016-12-21T02:57:09.625Z,1019.99
2016-12-21T02:57:50.146Z,1019.93
2016-12-21T02:58:30.670Z,1019.95
2016-12-21T02:59:11.209Z,1019.99
2016-12-21T02:59:51.741Z,1019.99
2016-12-21T03:00:32.273Z,1020.03
2016-12-21T03:01:12.800Z,1020.04
2016-12-21T03:01:53.333Z,1020.03
2016-12-21T03:02:33.861Z,1020.09
2016-12-21T03:03:14.390Z,1020.12
2016-12-21T03:03:54.924Z,1020.1
2016-12-21T03:04:35.462Z,1020.15
2016-12-21T03:05:15.991Z,1020.16
2016-12-21T03:05:56.529Z,1020.14
2016-12-21T03:06:37.061Z,1020.21
2016-12-21T03:07:17.590Z,1020.16
2016-12-21T03:07:58.121Z,1020.17
2016-12-21T03:08:38.649Z,1020.16
2016-12-21T03:09:19.177Z,1020.17
2016-12-21T03:09:59.706Z,1020.17
2016-12-21T03:10:40.237Z,1020.15
2016-12-21T03:11:20.754Z,1020.13
2016-12-21T03:12:01.271Z,1020.17
2016-12-21T03:12:41.797Z,1020.12
2016-12-21T03:13:22.322Z,1020.11
2016-12-21T03:14:02.843Z,1020.12
2016-12-21T03:14:43.384Z,1020.13
2016-12-21T03:15:23.904Z,1020.11
2016-12-21T03:16:04.423Z,1020.08
2016-12-21T03:16:44.938Z,1020.09
2016-12-21T03:17:25.472Z,1020.08
2016-12-21T03:18:05.995Z,1020.08
2016-12-21T03:18:46.530Z,1020.1
2016-12-21T03:19:27.062Z,1020.05
2016-12-21T03:20:07.592Z,1020.02
2016-12-21T03:20:48.132Z,1020.06
2016-12-21T03:21:28.658Z,1020.04
2016-12-21T03:22:09.191Z,1020.06
2016-12-21T03:22:49.726Z,1020.07
2016-12-21T03:23:30.262Z,1020.04
2016-12-21T03:24:10.790Z,1020.08
2016-12-21T03:24:51.321Z,1020.11
2016-12-21T03:25:31.860Z,1020.1
2016-12-21T03:26:12.406Z,1020.07
2016-12-21T03:26:52.938Z,1020.1
2016-12-21T03:27:33.487Z,1020.05
2016-12-21T03:28:14.024Z,1020.04
2016-12-21T03:28:54.551Z,1020.05
2016-12-21T03:29:35.084Z,1020.04
2016-12-21T03:30:15.616Z,1020.02
2016-12-21T03:30:56.188Z,1020.03
2016-12-21T03:31:36.719Z,1020.01
2016-12-21T03:32:17.258Z,1019.99
2016-12-21T03:32:57.782Z,1020.02
2016-12-21T03:33:38.310Z,1020.09
2016-12-21T03:34:18.839Z,1020.06
2016-12-21T03:34:59.378Z,1020.09
2016-12-21T03:35:39.909Z,1020.06
2016-12-21T03:36:20.443Z,1020.09
2016-12-21T03:37:00.985Z,1020.08
2016-12-21T03:37:41.478Z,1020.09
2016-12-21T03:38:22.012Z,1020.11
2016-12-21T03:39:02.546Z,1020.12
2016-12-21T03:39:43.076Z,1020.13
2016-12-21T03:40:23.618Z,1020.14
2016-12-21T03:41:04.119Z,1020.12
2016-12-21T03:41:44.648Z,1020.11
2016-12-21T03:42:25.187Z,1020.09
2016-12-21T03:43:05.719Z,1020.1
2016-12-21T03:43:46.240Z,1020.1
2016-12-21T03:44:26.772Z,1020.13
2016-12-21T03:45:07.309Z,1020.11
2016-12-21T03:45:47.837Z,1020.09
2016-12-21T03:46:28.355Z,1020.08
2016-12-21T03:47:08.872Z,1020.16
2016-12-21T03:47:49.411Z,1020.17
2016-12-21T03:48:29.939Z,1020.2
2016-12-21T03:49:10.454Z,1020.17
2016-12-21T03:49:50.976Z,1020.14
2016-12-21T03:50:31.514Z,1020.11
2016-12-21T03:51:12.048Z,1020.13
2016-12-21T03:51:52.558Z,1020.15
2016-12-21T03:52:33.085Z,1020.11
2016-12-21T03:53:13.618Z,1020.14
2016-12-21T03:53:54.153Z,1020.12
2016-12-21T03:54:34.678Z,1020.1
2016-12-21T03:55:15.202Z,1020.12
2016-12-21T03:55:55.734Z,1020.07
2016-12-21T03:56:36.263Z,1020.07
2016-12-21T03:57:16.803Z,1020.04
2016-12-21T03:57:57.337Z,1020.01
2016-12-21T03:58:37.861Z,1020
2016-12-21T03:59:18.398Z,1019.98
2016-12-21T03:59:58.938Z,1020.04
2016-12-21T04:00:39.469Z,1020.02
2016-12-21T04:01:19.992Z,1020.07
2016-12-21T04:02:00.522Z,1020.1
2016-12-21T04:02:41.079Z,1020.1
2016-12-21T04:03:21.637Z,1020.08
2016-12-21T04:04:02.174Z,1020.1
2016-12-21T04:04:42.705Z,1020.08
2016-12-21T04:05:23.228Z,1020.08
2016-12-21T04:06:03.887Z,1020.07
2016-12-21T04:06:44.415Z,1020.08
2016-12-21T04:07:24.954Z,1020.02
2016-12-21T04:08:05.584Z,1020.04
2016-12-21T04:08:46.112Z,1020.04
2016-12-21T04:09:26.650Z,1020.09
2016-12-21T04:10:07.182Z,1020.11
2016-12-21T04:10:47.719Z,1020.06
2016-12-21T04:11:28.234Z,1020.08
2016-12-21T04:12:08.779Z,1020.1
2016-12-21T04:12:49.313Z,1020.07
2016-12-21T04:13:29.847Z,1020.04
2016-12-21T04:14:10.384Z,1020.06
2016-12-21T04:14:50.922Z,1020.05
2016-12-21T04:15:31.456Z,1020.07
2016-12-21T04:16:11.976Z,1020.05
2016-12-21T04:16:52.506Z,1020.01
2016-12-21T04:17:33.025Z,1020.03
2016-12-21T04:18:13.561Z,1020.02
2016-12-21T04:18:54.123Z,1020.02
2016-12-21T04:19:34.607Z,1020.05
2016-12-21T04:20:15.137Z,1020.03
2016-12-21T04:20:55.648Z,1020.02
2016-12-21T04:21:36.171Z,1020.03
2016-12-21T04:22:16.708Z,1020.08
2016-12-21T04:22:57.246Z,1020.12
2016-12-21T04:23:37.782Z,1020.21
2016-12-21T04:24:18.316Z,1020.24
2016-12-21T04:24:58.867Z,1020.26
2016-12-21T04:25:39.382Z,1020.27
2016-12-21T04:26:19.900Z,1020.31
2016-12-21T04:27:00.443Z,1020.3
2016-12-21T04:27:40.974Z,1020.34
2016-12-21T04:28:21.485Z,1020.35
2016-12-21T04:29:02.020Z,1020.32
2016-12-21T04:29:42.540Z,1020.33
2016-12-21T04:30:23.069Z,1020.32
2016-12-21T04:31:03.582Z,1020.31
2016-12-21T04:31:44.119Z,1020.3
2016-12-21T04:32:24.644Z,1020.3
2016-12-21T04:33:05.177Z,1020.32
2016-12-21T04:33:45.713Z,1020.3
2016-12-21T04:34:26.235Z,1020.28
2016-12-21T04:35:06.765Z,1020.29
2016-12-21T04:35:47.315Z,1020.29
2016-12-21T04:36:27.846Z,1020.33
2016-12-21T04:37:08.363Z,1020.31
2016-12-21T04:37:48.891Z,1020.31
2016-12-21T04:38:29.428Z,1020.29
2016-12-21T04:39:09.958Z,1020.28
2016-12-21T04:39:50.497Z,1020.32
2016-12-21T04:40:31.031Z,1020.35
2016-12-21T04:41:11.560Z,1020.4
2016-12-21T04:41:52.077Z,1020.38
2016-12-21T04:42:32.595Z,1020.43
2016-12-21T04:43:13.125Z,1020.47
2016-12-21T04:43:53.666Z,1020.47
2016-12-21T04:44:34.181Z,1020.5
2016-12-21T04:45:14.695Z,1020.54
2016-12-21T04:45:55.225Z,1020.53
2016-12-21T04:46:35.746Z,1020.52
2016-12-21T04:47:16.270Z,1020.55
2016-12-21T04:47:56.801Z,1020.59
2016-12-21T04:48:37.353Z,1020.54
2016-12-21T04:49:17.878Z,1020.54
2016-12-21T04:49:58.401Z,1020.55
2016-12-21T04:50:38.933Z,1020.6
2016-12-21T04:51:19.474Z,1020.59
2016-12-21T04:52:00.006Z,1020.61
2016-12-21T04:52:40.532Z,1020.63
2016-12-21T04:53:21.063Z,1020.68
2016-12-21T04:54:01.593Z,1020.67
2016-12-21T04:54:42.188Z,1020.63
2016-12-21T04:55:22.701Z,1020.64
2016-12-21T04:56:03.238Z,1020.64
2016-12-21T04:56:43.768Z,1020.69
2016-12-21T04:57:24.301Z,1020.69
2016-12-21T04:58:04.836Z,1020.62
2016-12-21T04:58:45.375Z,1020.6
2016-12-21T04:59:25.900Z,1020.58
2016-12-21T05:00:06.415Z,1020.56
2016-12-21T05:00:46.950Z,1020.6
2016-12-21T05:01:27.495Z,1020.6
2016-12-21T05:02:08.011Z,1020.54
2016-12-21T05:02:48.542Z,1020.54
2016-12-21T05:03:29.082Z,1020.5
2016-12-21T05:04:09.609Z,1020.53
2016-12-21T05:04:50.144Z,1020.53
2016-12-21T05:05:30.682Z,1020.58
2016-12-21T05:06:11.205Z,1020.64
2016-12-21T05:06:51.734Z,1020.67
2016-12-21T05:07:32.275Z,1020.7
2016-12-21T05:08:12.813Z,1020.71
2016-12-21T05:08:53.348Z,1020.7
2016-12-21T05:09:33.883Z,1020.69
2016-12-21T05:10:14.420Z,1020.66
2016-12-21T05:10:54.957Z,1020.66
2016-12-21T05:11:35.487Z,1020.62
2016-12-21T05:12:16.031Z,1020.63
2016-12-21T05:12:56.566Z,1020.64
2016-12-21T05:13:37.102Z,1020.62
2016-12-21T05:14:17.633Z,1020.66
2016-12-21T05:14:58.161Z,1020.68
2016-12-21T05:15:38.664Z,1020.7
2016-12-21T05:16:19.195Z,1020.69
2016-12-21T05:16:59.711Z,1020.72
2016-12-21T05:17:40.232Z,1020.66
2016-12-21T05:18:20.763Z,1020.61
2016-12-21T05:19:01.286Z,1020.64
2016-12-21T05:19:41.807Z,1020.69
2016-12-21T05:20:22.340Z,1020.78
2016-12-21T05:21:02.854Z,1020.77
2016-12-21T05:21:43.382Z,1020.79
2016-12-21T05:22:23.896Z,1020.78
2016-12-21T05:23:04.730Z,1020.8
2016-12-21T05:23:45.151Z,1020.88
2016-12-21T05:24:25.669Z,1020.88
2016-12-21T05:25:06.190Z,1020.94
2016-12-21T05:25:46.769Z,1020.99
2016-12-21T05:26:27.299Z,1021.01
2016-12-21T05:27:07.834Z,1021.02
2016-12-21T05:27:48.368Z,1021.03
2016-12-21T05:28:28.906Z,1021.05
2016-12-21T05:29:09.421Z,1021.01
2016-12-21T05:29:49.958Z,1020.99
2016-12-21T05:30:30.492Z,1020.97
2016-12-21T05:31:11.029Z,1021
2016-12-21T05:31:51.566Z,1020.98
2016-12-21T05:32:32.118Z,1021.01
2016-12-21T05:33:12.660Z,1021.06
2016-12-21T05:33:53.176Z,1021.16
2016-12-21T05:34:33.724Z,1021.22
2016-12-21T05:35:14.225Z,1021.25
2016-12-21T05:35:54.742Z,1021.28
2016-12-21T05:36:35.277Z,1021.29
2016-12-21T05:37:15.807Z,1021.26
2016-12-21T05:37:56.348Z,1021.19
2016-12-21T05:38:36.886Z,1021.21
2016-12-21T05:39:17.421Z,1021.17
2016-12-21T05:39:57.955Z,1021.24
2016-12-21T05:40:38.501Z,1021.22
2016-12-21T05:41:19.032Z,1021.2
2016-12-21T05:41:59.574Z,1021.22
2016-12-21T05:42:40.092Z,1021.24
2016-12-21T05:43:20.619Z,1021.3
2016-12-21T05:44:01.133Z,1021.28
2016-12-21T05:44:41.671Z,1021.22
2016-12-21T05:45:22.191Z,1021.23
2016-12-21T05:46:02.741Z,1021.23
2016-12-21T05:46:43.268Z,1021.21
2016-12-21T05:47:23.776Z,1021.22
2016-12-21T05:48:04.291Z,1021.26
2016-12-21T05:48:44.851Z,1021.34
2016-12-21T05:49:25.336Z,1021.37
2016-12-21T05:50:05.842Z,1021.36
2016-12-21T05:50:46.369Z,1021.35
2016-12-21T05:51:26.897Z,1021.29
2016-12-21T05:52:07.428Z,1021.28
2016-12-21T05:52:47.944Z,1021.21
2016-12-21T05:53:28.471Z,1021.14
2016-12-21T05:54:09.008Z,1021.08
2016-12-21T05:54:49.514Z,1021.06
2016-12-21T05:55:30.045Z,1021.09
2016-12-21T05:56:10.585Z,1021.11
2016-12-21T05:56:51.093Z,1021.23
2016-12-21T05:57:31.624Z,1021.33
2016-12-21T05:58:12.144Z,1021.37
2016-12-21T05:58:52.662Z,1021.38
2016-12-21T05:59:33.184Z,1021.37
2016-12-21T06:00:13.700Z,1021.34
2016-12-21T06:00:54.231Z,1021.27
2016-12-21T06:01:34.766Z,1021.17
2016-12-21T06:02:15.292Z,1021.15
2016-12-21T06:02:55.820Z,1021.14
2016-12-21T06:03:36.346Z,1021.18
2016-12-21T06:04:16.892Z,1021.15
2016-12-21T06:04:57.438Z,1021.2
2016-12-21T06:05:37.971Z,1021.25
2016-12-21T06:06:18.518Z,1021.25
2016-12-21T06:06:59.043Z,1021.27
2016-12-21T06:07:39.554Z,1021.3
2016-12-21T06:08:20.088Z,1021.33
2016-12-21T06:09:00.598Z,1021.37
2016-12-21T06:09:41.122Z,1021.3
2016-12-21T06:10:21.688Z,1021.3
2016-12-21T06:11:02.211Z,1021.35
2016-12-21T06:11:42.740Z,1021.3
2016-12-21T06:12:23.267Z,1021.32
2016-12-21T06:13:03.794Z,1021.27
2016-12-21T06:13:44.316Z,1021.24
2016-12-21T06:14:24.845Z,1021.29
2016-12-21T06:15:05.371Z,1021.31
2016-12-21T06:15:45.896Z,1021.26
2016-12-21T06:16:26.427Z,1021.22
2016-12-21T06:17:06.959Z,1021.27
2016-12-21T06:17:47.495Z,1021.33
2016-12-21T06:18:28.017Z,1021.4
2016-12-21T06:19:08.536Z,1021.35
2016-12-21T06:19:49.058Z,1021.29
2016-12-21T06:20:29.590Z,1021.24
2016-12-21T06:21:10.135Z,1021.17
2016-12-21T06:21:50.673Z,1021.22
2016-12-21T06:22:31.200Z,1021.23
2016-12-21T06:23:11.736Z,1021.25
2016-12-21T06:23:52.271Z,1021.28
2016-12-21T06:24:32.807Z,1021.25
2016-12-21T06:25:13.339Z,1021.3
2016-12-21T06:25:53.864Z,1021.26
2016-12-21T06:26:34.380Z,1021.24
2016-12-21T06:27:14.975Z,1021.21
2016-12-21T06:27:55.504Z,1021.19
2016-12-21T06:28:36.035Z,1021.15
2016-12-21T06:29:16.573Z,1021.12
2016-12-21T06:29:57.110Z,1021.12
2016-12-21T06:30:37.637Z,1021.13
2016-12-21T06:31:18.155Z,1021.05
2016-12-21T06:31:58.689Z,1021.11
2016-12-21T06:32:39.203Z,1021.03
2016-12-21T06:33:19.792Z,1021.05
2016-12-21T06:34:00.313Z,1021.04
2016-12-21T06:34:40.835Z,1021.11
2016-12-21T06:35:21.367Z,1021.07
2016-12-21T06:36:01.900Z,1021.03
2016-12-21T06:36:42.427Z,1021.05
2016-12-21T06:37:22.946Z,1021.08
2016-12-21T06:38:03.439Z,1021.07
2016-12-21T06:38:43.973Z,1021.08
2016-12-21T06:39:24.503Z,1021.06
2016-12-21T06:40:05.016Z,1021
2016-12-21T06:40:45.559Z,1020.99
2016-12-21T06:41:26.080Z,1021.03
2016-12-21T06:42:06.626Z,1020.99
2016-12-21T06:42:47.161Z,1021.05
2016-12-21T06:43:27.707Z,1021.02
2016-12-21T06:44:08.236Z,1021.08
2016-12-21T06:44:48.754Z,1021.02
2016-12-21T06:45:29.281Z,1020.98
2016-12-21T06:46:09.793Z,1020.98
2016-12-21T06:46:50.322Z,1020.91
2016-12-21T06:47:30.848Z,1020.94
2016-12-21T06:48:11.353Z,1021.04
2016-12-21T06:48:51.888Z,1021.03
2016-12-21T06:49:32.420Z,1021.03
2016-12-21T06:50:12.954Z,1021.06
2016-12-21T06:50:53.478Z,1021.05
2016-12-21T06:51:34.012Z,1020.98
2016-12-21T06:52:14.539Z,1020.92
2016-12-21T06:52:55.071Z,1020.91
2016-12-21T06:53:35.593Z,1020.93
2016-12-21T06:54:16.131Z,1020.94
2016-12-21T06:54:56.665Z,1020.97
2016-12-21T06:55:37.189Z,1020.95
2016-12-21T06:56:17.716Z,1020.93
2016-12-21T06:56:58.249Z,1020.91
2016-12-21T06:57:38.783Z,1020.94
2016-12-21T06:58:19.288Z,1020.96
2016-12-21T06:58:59.800Z,1020.92
2016-12-21T06:59:40.329Z,1020.98
2016-12-21T07:00:20.864Z,1020.92
2016-12-21T07:01:01.405Z,1020.9
2016-12-21T07:01:41.938Z,1020.9
2016-12-21T07:02:22.466Z,1020.9
2016-12-21T07:03:02.997Z,1020.9
2016-12-21T07:03:43.534Z,1020.91
2016-12-21T07:04:24.065Z,1020.89
2016-12-21T07:05:04.595Z,1020.87
2016-12-21T07:05:45.122Z,1020.86
2016-12-21T07:06:25.652Z,1020.82
2016-12-21T07:07:06.307Z,1020.83
2016-12-21T07:07:46.841Z,1020.92
2016-12-21T07:08:27.375Z,1020.99
2016-12-21T07:09:07.920Z,1021.01
2016-12-21T07:09:48.440Z,1021
2016-12-21T07:10:28.971Z,1021.02
2016-12-21T07:11:09.506Z,1021.03
2016-12-21T07:11:50.042Z,1021.02
2016-12-21T07:12:30.577Z,1021.05
2016-12-21T07:13:11.111Z,1021.06
2016-12-21T07:13:51.639Z,1021.06
2016-12-21T07:14:32.176Z,1021.08
2016-12-21T07:15:12.715Z,1021.1
2016-12-21T07:15:53.239Z,1021.09
2016-12-21T07:16:33.779Z,1021.09
2016-12-21T07:17:14.319Z,1021.1
2016-12-21T07:17:54.858Z,1021.11
2016-12-21T07:18:35.387Z,1021.11
2016-12-21T07:19:15.925Z,1021.15
2016-12-21T07:19:56.461Z,1021.14
2016-12-21T07:20:36.990Z,1021.2
2016-12-21T07:21:17.521Z,1021.2
2016-12-21T07:21:58.038Z,1021.26
2016-12-21T07:22:38.550Z,1021.26
2016-12-21T07:23:19.090Z,1021.24
2016-12-21T07:23:59.629Z,1021.22
2016-12-21T07:24:40.148Z,1021.18
2016-12-21T07:25:20.676Z,1021.14
2016-12-21T07:26:01.219Z,1021.11
2016-12-21T07:26:41.733Z,1021.07
2016-12-21T07:27:22.285Z,1021.08
2016-12-21T07:28:02.811Z,1021.1
2016-12-21T07:28:43.336Z,1021.07
2016-12-21T07:29:23.874Z,1021.08
2016-12-21T07:30:04.417Z,1021.08
2016-12-21T07:30:44.948Z,1021.09
2016-12-21T07:31:25.481Z,1021.15
2016-12-21T07:32:05.989Z,1021.18
2016-12-21T07:32:46.510Z,1021.23
2016-12-21T07:33:27.119Z,1021.26
2016-12-21T07:34:07.644Z,1021.26
2016-12-21T07:34:48.179Z,1021.27
2016-12-21T07:35:28.736Z,1021.21
2016-12-21T07:36:09.277Z,1021.23
2016-12-21T07:36:49.786Z,1021.22
2016-12-21T07:37:30.326Z,1021.21
2016-12-21T07:38:10.900Z,1021.21
2016-12-21T07:38:51.440Z,1021.24
2016-12-21T07:39:31.984Z,1021.22
2016-12-21T07:40:12.533Z,1021.28
2016-12-21T07:40:53.049Z,1021.29
2016-12-21T07:41:33.580Z,1021.26
2016-12-21T07:42:14.105Z,1021.25
2016-12-21T07:42:54.646Z,1021.24
2016-12-21T07:43:35.186Z,1021.17
2016-12-21T07:44:15.727Z,1021.18
2016-12-21T07:44:56.268Z,1021.13
2016-12-21T07:45:36.779Z,1021.14
2016-12-21T07:46:17.310Z,1021.18
2016-12-21T07:46:57.844Z,1021.23
2016-12-21T07:47:38.387Z,1021.18
2016-12-21T07:48:18.904Z,1021.26
2016-12-21T07:48:59.432Z,1021.25
2016-12-21T07:49:39.950Z,1021.28
2016-12-21T07:50:20.474Z,1021.28
2016-12-21T07:51:01.001Z,1021.24
2016-12-21T07:51:41.534Z,1021.28
2016-12-21T07:52:22.063Z,1021.23
2016-12-21T07:53:02.589Z,1021.24
2016-12-21T07:53:43.126Z,1021.26
2016-12-21T07:54:23.642Z,1021.29
2016-12-21T07:55:04.161Z,1021.25
2016-12-21T07:55:44.693Z,1021.31
2016-12-21T07:56:25.242Z,1021.32
2016-12-21T07:57:05.777Z,1021.37
2016-12-21T07:57:46.301Z,1021.36
2016-12-21T07:58:26.811Z,1021.38
2016-12-21T07:59:07.343Z,1021.37
2016-12-21T07:59:47.867Z,1021.37
2016-12-21T08:00:28.394Z,1021.41
2016-12-21T08:01:08.913Z,1021.38
2016-12-21T08:01:49.452Z,1021.37
2016-12-21T08:02:29.985Z,1021.38
2016-12-21T08:03:10.521Z,1021.35
2016-12-21T08:03:51.048Z,1021.35
2016-12-21T08:04:31.582Z,1021.34
2016-12-21T08:05:12.119Z,1021.34
2016-12-21T08:05:52.654Z,1021.35
2016-12-21T08:06:33.173Z,1021.38
2016-12-21T08:07:13.708Z,1021.35
2016-12-21T08:07:54.278Z,1021.36
2016-12-21T08:08:34.821Z,1021.4
2016-12-21T08:09:15.360Z,1021.4
2016-12-21T08:09:55.895Z,1021.42
2016-12-21T08:10:36.446Z,1021.4
2016-12-21T08:11:16.970Z,1021.46
2016-12-21T08:11:57.512Z,1021.44
2016-12-21T08:12:38.047Z,1021.49
2016-12-21T08:13:18.568Z,1021.48
2016-12-21T08:13:59.098Z,1021.51
2016-12-21T08:14:39.643Z,1021.54
2016-12-21T08:15:20.166Z,1021.51
2016-12-21T08:16:00.669Z,1021.54
2016-12-21T08:16:41.200Z,1021.57
2016-12-21T08:17:21.718Z,1021.57
2016-12-21T08:18:02.247Z,1021.57
2016-12-21T08:18:42.780Z,1021.56
2016-12-21T08:19:23.309Z,1021.56
2016-12-21T08:20:03.812Z,1021.6
2016-12-21T08:20:44.346Z,1021.56
2016-12-21T08:21:24.853Z,1021.53
2016-12-21T08:22:05.389Z,1021.61
2016-12-21T08:22:45.931Z,1021.64
2016-12-21T08:23:26.471Z,1021.65
2016-12-21T08:24:07.008Z,1021.67
2016-12-21T08:24:47.550Z,1021.66
2016-12-21T08:25:28.082Z,1021.68
2016-12-21T08:26:08.610Z,1021.65
2016-12-21T08:26:49.153Z,1021.63
2016-12-21T08:27:29.684Z,1021.67
2016-12-21T08:28:10.219Z,1021.66
2016-12-21T08:28:50.752Z,1021.67
2016-12-21T08:29:31.282Z,1021.65
2016-12-21T08:30:11.821Z,1021.68
2016-12-21T08:30:52.345Z,1021.68
2016-12-21T08:31:32.861Z,1021.73
2016-12-21T08:32:13.381Z,1021.72
2016-12-21T08:32:53.935Z,1021.74
2016-12-21T08:33:34.441Z,1021.73
2016-12-21T08:34:14.967Z,1021.79
2016-12-21T08:34:55.499Z,1021.76
2016-12-21T08:35:36.039Z,1021.73
2016-12-21T08:36:16.563Z,1021.75
2016-12-21T08:36:57.077Z,1021.68
2016-12-21T08:37:37.610Z,1021.71
2016-12-21T08:38:18.145Z,1021.71
2016-12-21T08:38:58.670Z,1021.66
2016-12-21T08:39:39.209Z,1021.67
2016-12-21T08:40:19.743Z,1021.68
2016-12-21T08:41:00.276Z,1021.68
2016-12-21T08:41:40.811Z,1021.76
2016-12-21T08:42:21.359Z,1021.64
2016-12-21T08:43:01.883Z,1021.69
2016-12-21T08:43:42.406Z,1021.71
2016-12-21T08:44:22.943Z,1021.7
2016-12-21T08:45:03.479Z,1021.68
2016-12-21T08:45:44.014Z,1021.72
2016-12-21T08:46:24.554Z,1021.73
2016-12-21T08:47:05.087Z,1021.74
2016-12-21T08:47:45.607Z,1021.76